Blakely, Arkansas
Current Conditions -  °F | °C
As of 11:53 PM on Friday 28 Nov 2014 (Local Time) from KHOT Reporting Station
Overcast Overcast  
Wind Chill: 55°   Ceiling: 4500
Heat Index: 55°   Visibility: 10mi
Dew Point: 46°   Wind: 12mph
Humidity: 72%   Direction: 210°SSW
Pressure: 30.03"   Gusts: 25mph
Location:  34.7078°N, 93.0493°W
Report Text: KHOT 290553Z AUTO 21010G22KT 10SM OVC045 13/08 A3003 RMK AO2 SLP168 T01280078 10133 20122 401560000 58012
Loading
Personal Weather Stations






























Interactive Weather Map New forecast layout! Learn more

10-Day Weather Forecast

Advertisements
Track Severe Weather on mobile